sensor_id;sensor_type;location;lat;lon;timestamp;P1;durP1;ratioP1;P2;durP2;ratioP2
68858;SDS011;55864;49.238;8.092;2023-12-07T00:00:36;17.00;;;7.67;;
68858;SDS011;55864;49.238;8.092;2023-12-07T00:02:36;18.90;;;7.50;;
68858;SDS011;55864;49.238;8.092;2023-12-07T00:04:37;19.70;;;7.70;;
68858;SDS011;55864;49.238;8.092;2023-12-07T00:06:37;17.07;;;7.90;;
68858;SDS011;55864;49.238;8.092;2023-12-07T00:08:38;15.60;;;7.17;;
68858;SDS011;55864;49.238;8.092;2023-12-07T00:10:40;16.13;;;7.37;;
68858;SDS011;55864;49.238;8.092;2023-12-07T00:12:40;16.77;;;7.13;;
68858;SDS011;55864;49.238;8.092;2023-12-07T00:14:41;20.13;;;8.70;;
68858;SDS011;55864;49.238;8.092;2023-12-07T00:16:41;15.20;;;7.20;;
68858;SDS011;55864;49.238;8.092;2023-12-07T00:18:42;15.90;;;7.17;;
68858;SDS011;55864;49.238;8.092;2023-12-07T00:20:42;18.83;;;7.27;;
68858;SDS011;55864;49.238;8.092;2023-12-07T00:22:43;15.37;;;7.20;;
68858;SDS011;55864;49.238;8.092;2023-12-07T00:24:43;15.80;;;7.40;;
68858;SDS011;55864;49.238;8.092;2023-12-07T00:26:45;17.60;;;7.73;;
68858;SDS011;55864;49.238;8.092;2023-12-07T00:28:46;17.87;;;7.83;;
68858;SDS011;55864;49.238;8.092;2023-12-07T00:30:48;18.48;;;7.72;;
68858;SDS011;55864;49.238;8.092;2023-12-07T00:32:49;32.87;;;11.83;;
68858;SDS011;55864;49.238;8.092;2023-12-07T00:34:49;25.97;;;10.13;;
68858;SDS011;55864;49.238;8.092;2023-12-07T00:36:50;17.60;;;8.30;;
68858;SDS011;55864;49.238;8.092;2023-12-07T00:38:50;18.37;;;7.43;;
68858;SDS011;55864;49.238;8.092;2023-12-07T00:40:51;15.27;;;7.00;;
68858;SDS011;55864;49.238;8.092;2023-12-07T00:42:53;16.43;;;6.60;;
68858;SDS011;55864;49.238;8.092;2023-12-07T00:44:53;18.53;;;6.90;;
68858;SDS011;55864;49.238;8.092;2023-12-07T00:46:54;16.57;;;7.37;;
68858;SDS011;55864;49.238;8.092;2023-12-07T00:48:54;17.00;;;6.87;;
68858;SDS011;55864;49.238;8.092;2023-12-07T00:50:55;14.30;;;6.43;;
68858;SDS011;55864;49.238;8.092;2023-12-07T00:52:55;15.77;;;7.37;;
68858;SDS011;55864;49.238;8.092;2023-12-07T00:54:56;16.23;;;7.10;;
68858;SDS011;55864;49.238;8.092;2023-12-07T00:56:57;16.53;;;6.57;;
68858;SDS011;55864;49.238;8.092;2023-12-07T00:59:02;17.40;;;6.83;;
68858;SDS011;55864;49.238;8.092;2023-12-07T01:01:02;15.80;;;6.80;;
68858;SDS011;55864;49.238;8.092;2023-12-07T01:03:03;13.83;;;6.90;;
68858;SDS011;55864;49.238;8.092;2023-12-07T01:05:04;15.13;;;7.03;;
68858;SDS011;55864;49.238;8.092;2023-12-07T01:07:05;19.77;;;7.43;;
68858;SDS011;55864;49.238;8.092;2023-12-07T01:09:05;16.43;;;7.40;;
68858;SDS011;55864;49.238;8.092;2023-12-07T01:11:06;19.30;;;7.73;;
68858;SDS011;55864;49.238;8.092;2023-12-07T01:13:06;16.97;;;7.00;;
68858;SDS011;55864;49.238;8.092;2023-12-07T01:15:08;14.43;;;6.53;;
68858;SDS011;55864;49.238;8.092;2023-12-07T01:17:09;16.90;;;6.73;;
68858;SDS011;55864;49.238;8.092;2023-12-07T01:19:09;16.50;;;6.50;;
68858;SDS011;55864;49.238;8.092;2023-12-07T01:21:10;16.77;;;7.50;;
68858;SDS011;55864;49.238;8.092;2023-12-07T01:23:11;15.27;;;6.70;;
68858;SDS011;55864;49.238;8.092;2023-12-07T01:25:11;17.33;;;6.97;;
68858;SDS011;55864;49.238;8.092;2023-12-07T01:27:12;16.23;;;7.27;;
68858;SDS011;55864;49.238;8.092;2023-12-07T01:29:13;17.37;;;6.90;;
68858;SDS011;55864;49.238;8.092;2023-12-07T01:31:16;17.30;;;7.20;;
68858;SDS011;55864;49.238;8.092;2023-12-07T01:33:17;16.80;;;6.73;;
68858;SDS011;55864;49.238;8.092;2023-12-07T01:35:17;15.67;;;6.83;;
68858;SDS011;55864;49.238;8.092;2023-12-07T01:37:18;15.60;;;6.47;;
68858;SDS011;55864;49.238;8.092;2023-12-07T01:39:18;16.43;;;6.90;;
68858;SDS011;55864;49.238;8.092;2023-12-07T01:41:19;15.93;;;6.70;;
68858;SDS011;55864;49.238;8.092;2023-12-07T01:43:19;12.90;;;6.80;;
68858;SDS011;55864;49.238;8.092;2023-12-07T01:45:22;14.93;;;6.50;;
68858;SDS011;55864;49.238;8.092;2023-12-07T01:47:23;15.40;;;6.87;;
68858;SDS011;55864;49.238;8.092;2023-12-07T01:49:24;15.80;;;6.87;;
68858;SDS011;55864;49.238;8.092;2023-12-07T01:51:25;13.37;;;6.83;;
68858;SDS011;55864;49.238;8.092;2023-12-07T01:53:26;14.13;;;6.73;;
68858;SDS011;55864;49.238;8.092;2023-12-07T01:55:26;15.13;;;6.97;;
68858;SDS011;55864;49.238;8.092;2023-12-07T01:57:29;15.87;;;6.60;;
68858;SDS011;55864;49.238;8.092;2023-12-07T01:59:29;16.63;;;7.30;;
68858;SDS011;55864;49.238;8.092;2023-12-07T02:01:30;15.80;;;7.20;;
68858;SDS011;55864;49.238;8.092;2023-12-07T02:03:32;16.00;;;7.40;;
68858;SDS011;55864;49.238;8.092;2023-12-07T02:05:32;17.60;;;7.83;;
68858;SDS011;55864;49.238;8.092;2023-12-07T02:07:33;15.17;;;6.70;;
68858;SDS011;55864;49.238;8.092;2023-12-07T02:09:34;16.73;;;6.83;;
68858;SDS011;55864;49.238;8.092;2023-12-07T02:11:35;18.57;;;7.37;;
68858;SDS011;55864;49.238;8.092;2023-12-07T02:13:35;13.70;;;6.00;;
68858;SDS011;55864;49.238;8.092;2023-12-07T02:15:36;14.90;;;5.70;;
68858;SDS011;55864;49.238;8.092;2023-12-07T02:17:38;13.00;;;6.13;;
68858;SDS011;55864;49.238;8.092;2023-12-07T02:19:49;16.67;;;6.87;;
68858;SDS011;55864;49.238;8.092;2023-12-07T02:21:56;18.43;;;7.60;;
68858;SDS011;55864;49.238;8.092;2023-12-07T02:24:02;17.60;;;7.30;;
68858;SDS011;55864;49.238;8.092;2023-12-07T02:26:05;18.05;;;7.95;;
68858;SDS011;55864;49.238;8.092;2023-12-07T02:28:10;18.42;;;7.60;;
68858;SDS011;55864;49.238;8.092;2023-12-07T02:30:11;16.97;;;7.50;;
68858;SDS011;55864;49.238;8.092;2023-12-07T02:32:12;17.20;;;8.10;;
68858;SDS011;55864;49.238;8.092;2023-12-07T02:34:12;16.00;;;7.37;;
68858;SDS011;55864;49.238;8.092;2023-12-07T02:36:13;16.97;;;8.17;;
68858;SDS011;55864;49.238;8.092;2023-12-07T02:38:17;17.10;;;7.77;;
68858;SDS011;55864;49.238;8.092;2023-12-07T02:40:21;19.65;;;7.55;;
68858;SDS011;55864;49.238;8.092;2023-12-07T02:42:24;22.17;;;8.67;;
68858;SDS011;55864;49.238;8.092;2023-12-07T02:44:28;18.33;;;7.43;;
68858;SDS011;55864;49.238;8.092;2023-12-07T02:46:29;17.63;;;7.60;;
68858;SDS011;55864;49.238;8.092;2023-12-07T02:48:29;18.07;;;7.50;;
68858;SDS011;55864;49.238;8.092;2023-12-07T02:50:30;15.30;;;7.30;;
68858;SDS011;55864;49.238;8.092;2023-12-07T02:52:30;16.67;;;6.80;;
68858;SDS011;55864;49.238;8.092;2023-12-07T02:54:31;14.57;;;6.87;;
68858;SDS011;55864;49.238;8.092;2023-12-07T02:56:31;14.70;;;6.73;;
68858;SDS011;55864;49.238;8.092;2023-12-07T02:58:32;15.97;;;6.63;;
68858;SDS011;55864;49.238;8.092;2023-12-07T03:00:34;14.27;;;6.73;;
68858;SDS011;55864;49.238;8.092;2023-12-07T03:02:34;13.63;;;7.10;;
68858;SDS011;55864;49.238;8.092;2023-12-07T03:04:35;15.90;;;6.73;;
68858;SDS011;55864;49.238;8.092;2023-12-07T03:06:36;15.07;;;7.03;;
68858;SDS011;55864;49.238;8.092;2023-12-07T03:08:36;15.53;;;6.97;;
68858;SDS011;55864;49.238;8.092;2023-12-07T03:10:37;15.47;;;7.23;;
68858;SDS011;55864;49.238;8.092;2023-12-07T03:12:37;14.20;;;6.67;;
68858;SDS011;55864;49.238;8.092;2023-12-07T03:14:37;15.13;;;6.97;;
68858;SDS011;55864;49.238;8.092;2023-12-07T03:16:39;14.83;;;6.63;;
68858;SDS011;55864;49.238;8.092;2023-12-07T03:18:40;17.07;;;7.47;;
68858;SDS011;55864;49.238;8.092;2023-12-07T03:20:40;14.67;;;7.03;;
68858;SDS011;55864;49.238;8.092;2023-12-07T03:22:41;15.03;;;7.00;;
68858;SDS011;55864;49.238;8.092;2023-12-07T03:24:44;13.23;;;6.40;;
68858;SDS011;55864;49.238;8.092;2023-12-07T03:26:46;13.07;;;6.07;;
68858;SDS011;55864;49.238;8.092;2023-12-07T03:28:46;15.30;;;5.87;;
68858;SDS011;55864;49.238;8.092;2023-12-07T03:30:47;15.13;;;5.97;;
68858;SDS011;55864;49.238;8.092;2023-12-07T03:32:49;15.20;;;7.10;;
68858;SDS011;55864;49.238;8.092;2023-12-07T03:34:49;17.17;;;6.97;;
68858;SDS011;55864;49.238;8.092;2023-12-07T03:36:50;13.97;;;6.57;;
68858;SDS011;55864;49.238;8.092;2023-12-07T03:38:50;14.60;;;6.33;;
68858;SDS011;55864;49.238;8.092;2023-12-07T03:40:51;14.80;;;6.50;;
68858;SDS011;55864;49.238;8.092;2023-12-07T03:42:51;15.00;;;6.23;;
68858;SDS011;55864;49.238;8.092;2023-12-07T03:44:51;15.30;;;6.93;;
68858;SDS011;55864;49.238;8.092;2023-12-07T03:46:52;14.47;;;6.67;;
68858;SDS011;55864;49.238;8.092;2023-12-07T03:48:54;13.30;;;6.00;;
68858;SDS011;55864;49.238;8.092;2023-12-07T03:50:54;15.43;;;6.37;;
68858;SDS011;55864;49.238;8.092;2023-12-07T03:52:55;13.20;;;6.00;;
68858;SDS011;55864;49.238;8.092;2023-12-07T03:54:55;14.80;;;6.40;;
68858;SDS011;55864;49.238;8.092;2023-12-07T03:56:56;12.97;;;6.27;;
68858;SDS011;55864;49.238;8.092;2023-12-07T03:58:56;12.97;;;6.30;;
68858;SDS011;55864;49.238;8.092;2023-12-07T04:00:57;13.90;;;6.17;;
68858;SDS011;55864;49.238;8.092;2023-12-07T04:02:58;13.53;;;6.17;;
68858;SDS011;55864;49.238;8.092;2023-12-07T04:05:00;13.97;;;5.70;;
68858;SDS011;55864;49.238;8.092;2023-12-07T04:07:00;15.93;;;6.43;;
68858;SDS011;55864;49.238;8.092;2023-12-07T04:09:01;13.70;;;6.10;;
68858;SDS011;55864;49.238;8.092;2023-12-07T04:11:01;17.20;;;7.17;;
68858;SDS011;55864;49.238;8.092;2023-12-07T04:13:02;15.50;;;6.67;;
68858;SDS011;55864;49.238;8.092;2023-12-07T04:15:02;14.63;;;6.27;;
68858;SDS011;55864;49.238;8.092;2023-12-07T04:17:03;15.53;;;7.27;;
68858;SDS011;55864;49.238;8.092;2023-12-07T04:19:04;18.70;;;8.37;;
68858;SDS011;55864;49.238;8.092;2023-12-07T04:21:06;17.97;;;7.70;;
68858;SDS011;55864;49.238;8.092;2023-12-07T04:23:06;14.83;;;6.43;;
68858;SDS011;55864;49.238;8.092;2023-12-07T04:25:07;15.47;;;6.20;;
68858;SDS011;55864;49.238;8.092;2023-12-07T04:27:08;14.00;;;6.50;;
68858;SDS011;55864;49.238;8.092;2023-12-07T04:29:09;14.47;;;5.93;;
68858;SDS011;55864;49.238;8.092;2023-12-07T04:31:09;14.20;;;6.53;;
68858;SDS011;55864;49.238;8.092;2023-12-07T04:33:09;11.57;;;5.60;;
68858;SDS011;55864;49.238;8.092;2023-12-07T04:35:10;19.83;;;7.13;;
68858;SDS011;55864;49.238;8.092;2023-12-07T04:37:12;15.50;;;6.10;;
68858;SDS011;55864;49.238;8.092;2023-12-07T04:39:12;15.10;;;6.00;;
68858;SDS011;55864;49.238;8.092;2023-12-07T04:41:13;13.03;;;5.80;;
68858;SDS011;55864;49.238;8.092;2023-12-07T04:43:13;14.10;;;5.90;;
68858;SDS011;55864;49.238;8.092;2023-12-07T04:45:14;13.00;;;6.03;;
68858;SDS011;55864;49.238;8.092;2023-12-07T04:47:15;10.37;;;4.77;;
68858;SDS011;55864;49.238;8.092;2023-12-07T04:49:15;10.90;;;4.67;;
68858;SDS011;55864;49.238;8.092;2023-12-07T04:51:16;10.83;;;4.37;;
68858;SDS011;55864;49.238;8.092;2023-12-07T04:53:18;8.97;;;3.97;;
68858;SDS011;55864;49.238;8.092;2023-12-07T04:55:18;10.53;;;3.93;;
68858;SDS011;55864;49.238;8.092;2023-12-07T04:57:19;9.80;;;3.90;;
68858;SDS011;55864;49.238;8.092;2023-12-07T04:59:19;11.17;;;4.23;;
68858;SDS011;55864;49.238;8.092;2023-12-07T05:01:20;9.90;;;3.90;;
68858;SDS011;55864;49.238;8.092;2023-12-07T05:03:21;11.10;;;4.00;;
68858;SDS011;55864;49.238;8.092;2023-12-07T05:05:22;11.77;;;4.00;;
68858;SDS011;55864;49.238;8.092;2023-12-07T05:07:22;8.93;;;3.60;;
68858;SDS011;55864;49.238;8.092;2023-12-07T05:09:24;8.17;;;3.37;;
68858;SDS011;55864;49.238;8.092;2023-12-07T05:11:25;10.00;;;4.17;;
68858;SDS011;55864;49.238;8.092;2023-12-07T05:13:26;12.90;;;4.43;;
68858;SDS011;55864;49.238;8.092;2023-12-07T05:15:26;10.07;;;4.60;;
68858;SDS011;55864;49.238;8.092;2023-12-07T05:17:27;11.57;;;4.87;;
68858;SDS011;55864;49.238;8.092;2023-12-07T05:19:28;9.63;;;4.00;;
68858;SDS011;55864;49.238;8.092;2023-12-07T05:21:28;7.93;;;3.53;;
68858;SDS011;55864;49.238;8.092;2023-12-07T05:23:29;8.93;;;3.73;;
68858;SDS011;55864;49.238;8.092;2023-12-07T05:25:31;13.93;;;5.53;;
68858;SDS011;55864;49.238;8.092;2023-12-07T05:27:31;11.23;;;5.03;;
68858;SDS011;55864;49.238;8.092;2023-12-07T05:29:32;11.00;;;5.00;;
68858;SDS011;55864;49.238;8.092;2023-12-07T05:31:32;11.13;;;4.70;;
68858;SDS011;55864;49.238;8.092;2023-12-07T05:33:33;10.50;;;3.97;;
68858;SDS011;55864;49.238;8.092;2023-12-07T05:35:33;9.40;;;3.90;;
68858;SDS011;55864;49.238;8.092;2023-12-07T05:37:34;9.30;;;3.87;;
68858;SDS011;55864;49.238;8.092;2023-12-07T05:39:34;9.90;;;4.00;;
68858;SDS011;55864;49.238;8.092;2023-12-07T05:41:36;9.97;;;4.03;;
68858;SDS011;55864;49.238;8.092;2023-12-07T05:43:37;10.73;;;3.70;;
68858;SDS011;55864;49.238;8.092;2023-12-07T05:45:40;12.57;;;4.28;;
68858;SDS011;55864;49.238;8.092;2023-12-07T05:47:40;8.40;;;4.03;;
68858;SDS011;55864;49.238;8.092;2023-12-07T05:49:41;13.33;;;4.50;;
68858;SDS011;55864;49.238;8.092;2023-12-07T05:51:42;11.30;;;4.10;;
68858;SDS011;55864;49.238;8.092;2023-12-07T05:53:42;9.70;;;4.03;;
68858;SDS011;55864;49.238;8.092;2023-12-07T05:55:44;9.70;;;3.53;;
68858;SDS011;55864;49.238;8.092;2023-12-07T05:57:46;7.83;;;3.50;;
68858;SDS011;55864;49.238;8.092;2023-12-07T05:59:46;11.40;;;4.00;;
68858;SDS011;55864;49.238;8.092;2023-12-07T06:01:47;10.47;;;4.17;;
68858;SDS011;55864;49.238;8.092;2023-12-07T06:03:47;8.77;;;4.27;;
68858;SDS011;55864;49.238;8.092;2023-12-07T06:05:48;11.80;;;4.90;;
68858;SDS011;55864;49.238;8.092;2023-12-07T06:07:48;13.13;;;5.63;;
68858;SDS011;55864;49.238;8.092;2023-12-07T06:09:49;13.73;;;5.93;;
68858;SDS011;55864;49.238;8.092;2023-12-07T06:11:49;15.70;;;6.20;;
68858;SDS011;55864;49.238;8.092;2023-12-07T06:13:51;16.33;;;7.27;;
68858;SDS011;55864;49.238;8.092;2023-12-07T06:15:52;23.20;;;9.60;;
68858;SDS011;55864;49.238;8.092;2023-12-07T06:17:53;21.43;;;9.07;;
68858;SDS011;55864;49.238;8.092;2023-12-07T06:19:54;19.27;;;8.83;;
68858;SDS011;55864;49.238;8.092;2023-12-07T06:21:55;21.63;;;9.43;;
68858;SDS011;55864;49.238;8.092;2023-12-07T06:23:57;18.93;;;8.03;;
68858;SDS011;55864;49.238;8.092;2023-12-07T06:25:57;17.40;;;6.77;;
68858;SDS011;55864;49.238;8.092;2023-12-07T06:27:58;17.07;;;6.30;;
68858;SDS011;55864;49.238;8.092;2023-12-07T06:30:00;15.60;;;5.70;;
68858;SDS011;55864;49.238;8.092;2023-12-07T06:32:00;14.30;;;5.57;;
68858;SDS011;55864;49.238;8.092;2023-12-07T06:34:01;11.60;;;4.70;;
68858;SDS011;55864;49.238;8.092;2023-12-07T06:36:01;9.90;;;4.23;;
68858;SDS011;55864;49.238;8.092;2023-12-07T06:38:02;18.67;;;4.50;;
68858;SDS011;55864;49.238;8.092;2023-12-07T06:40:03;12.07;;;5.07;;
68858;SDS011;55864;49.238;8.092;2023-12-07T06:42:04;12.13;;;5.30;;
68858;SDS011;55864;49.238;8.092;2023-12-07T06:44:05;9.67;;;4.67;;
68858;SDS011;55864;49.238;8.092;2023-12-07T06:46:07;9.27;;;3.80;;
68858;SDS011;55864;49.238;8.092;2023-12-07T06:48:08;13.30;;;5.20;;
68858;SDS011;55864;49.238;8.092;2023-12-07T06:50:08;17.83;;;7.97;;
68858;SDS011;55864;49.238;8.092;2023-12-07T06:52:09;10.43;;;4.37;;
68858;SDS011;55864;49.238;8.092;2023-12-07T06:54:10;10.50;;;4.10;;
68858;SDS011;55864;49.238;8.092;2023-12-07T06:56:10;9.43;;;3.90;;
68858;SDS011;55864;49.238;8.092;2023-12-07T06:58:11;8.13;;;3.10;;
68858;SDS011;55864;49.238;8.092;2023-12-07T07:00:12;8.20;;;3.20;;
68858;SDS011;55864;49.238;8.092;2023-12-07T07:02:14;11.67;;;3.80;;
68858;SDS011;55864;49.238;8.092;2023-12-07T07:04:15;10.20;;;4.00;;
68858;SDS011;55864;49.238;8.092;2023-12-07T07:06:15;9.17;;;4.10;;
68858;SDS011;55864;49.238;8.092;2023-12-07T07:08:16;10.83;;;3.80;;
68858;SDS011;55864;49.238;8.092;2023-12-07T07:10:16;11.70;;;4.20;;
68858;SDS011;55864;49.238;8.092;2023-12-07T07:12:17;9.43;;;3.80;;
68858;SDS011;55864;49.238;8.092;2023-12-07T07:14:17;9.37;;;3.57;;
68858;SDS011;55864;49.238;8.092;2023-12-07T07:16:18;13.10;;;5.80;;
68858;SDS011;55864;49.238;8.092;2023-12-07T07:18:20;10.53;;;4.90;;
68858;SDS011;55864;49.238;8.092;2023-12-07T07:20:20;10.93;;;4.73;;
68858;SDS011;55864;49.238;8.092;2023-12-07T07:22:21;10.43;;;4.53;;
68858;SDS011;55864;49.238;8.092;2023-12-07T07:24:21;11.83;;;4.63;;
68858;SDS011;55864;49.238;8.092;2023-12-07T07:26:22;12.53;;;5.47;;
68858;SDS011;55864;49.238;8.092;2023-12-07T07:28:22;10.97;;;4.73;;
68858;SDS011;55864;49.238;8.092;2023-12-07T07:30:23;10.43;;;4.90;;
68858;SDS011;55864;49.238;8.092;2023-12-07T07:32:23;15.10;;;6.17;;
68858;SDS011;55864;49.238;8.092;2023-12-07T07:34:25;18.93;;;7.90;;
68858;SDS011;55864;49.238;8.092;2023-12-07T07:36:25;27.90;;;11.93;;
68858;SDS011;55864;49.238;8.092;2023-12-07T07:38:26;36.73;;;14.43;;
68858;SDS011;55864;49.238;8.092;2023-12-07T07:40:26;33.00;;;12.67;;
68858;SDS011;55864;49.238;8.092;2023-12-07T07:42:27;24.57;;;9.77;;
68858;SDS011;55864;49.238;8.092;2023-12-07T07:44:27;19.53;;;7.83;;
68858;SDS011;55864;49.238;8.092;2023-12-07T07:46:28;16.93;;;6.10;;
68858;SDS011;55864;49.238;8.092;2023-12-07T07:48:28;14.60;;;6.20;;
68858;SDS011;55864;49.238;8.092;2023-12-07T07:50:30;12.10;;;5.63;;
68858;SDS011;55864;49.238;8.092;2023-12-07T07:52:32;13.65;;;6.28;;
68858;SDS011;55864;49.238;8.092;2023-12-07T07:54:33;15.83;;;6.30;;
68858;SDS011;55864;49.238;8.092;2023-12-07T07:56:33;12.83;;;5.67;;
68858;SDS011;55864;49.238;8.092;2023-12-07T07:58:34;14.23;;;5.77;;
68858;SDS011;55864;49.238;8.092;2023-12-07T08:00:34;24.13;;;8.43;;
68858;SDS011;55864;49.238;8.092;2023-12-07T08:02:34;20.80;;;7.20;;
68858;SDS011;55864;49.238;8.092;2023-12-07T08:04:35;20.40;;;6.87;;
68858;SDS011;55864;49.238;8.092;2023-12-07T08:06:37;19.17;;;7.77;;
68858;SDS011;55864;49.238;8.092;2023-12-07T08:08:37;18.40;;;7.60;;
68858;SDS011;55864;49.238;8.092;2023-12-07T08:10:38;16.67;;;7.20;;
68858;SDS011;55864;49.238;8.092;2023-12-07T08:12:39;17.33;;;6.57;;
68858;SDS011;55864;49.238;8.092;2023-12-07T08:14:40;17.47;;;6.93;;
68858;SDS011;55864;49.238;8.092;2023-12-07T08:16:42;16.30;;;6.50;;
68858;SDS011;55864;49.238;8.092;2023-12-07T08:18:43;16.30;;;6.90;;
68858;SDS011;55864;49.238;8.092;2023-12-07T08:20:43;15.10;;;6.33;;
68858;SDS011;55864;49.238;8.092;2023-12-07T08:22:45;13.43;;;5.60;;
68858;SDS011;55864;49.238;8.092;2023-12-07T08:24:46;12.23;;;5.17;;
68858;SDS011;55864;49.238;8.092;2023-12-07T08:26:46;12.17;;;5.30;;
68858;SDS011;55864;49.238;8.092;2023-12-07T08:28:47;13.97;;;6.07;;
68858;SDS011;55864;49.238;8.092;2023-12-07T08:30:47;13.00;;;5.40;;
68858;SDS011;55864;49.238;8.092;2023-12-07T08:32:47;11.50;;;5.33;;
68858;SDS011;55864;49.238;8.092;2023-12-07T08:34:48;11.97;;;5.10;;
68858;SDS011;55864;49.238;8.092;2023-12-07T08:36:48;10.77;;;4.47;;
68858;SDS011;55864;49.238;8.092;2023-12-07T08:38:50;10.60;;;4.57;;
68858;SDS011;55864;49.238;8.092;2023-12-07T08:40:51;12.20;;;4.53;;
68858;SDS011;55864;49.238;8.092;2023-12-07T08:42:54;11.07;;;5.10;;
68858;SDS011;55864;49.238;8.092;2023-12-07T08:44:55;13.23;;;6.07;;
68858;SDS011;55864;49.238;8.092;2023-12-07T08:46:55;12.53;;;5.80;;
68858;SDS011;55864;49.238;8.092;2023-12-07T08:48:56;14.23;;;5.93;;
68858;SDS011;55864;49.238;8.092;2023-12-07T08:50:56;15.80;;;6.30;;
68858;SDS011;55864;49.238;8.092;2023-12-07T08:52:57;12.37;;;6.20;;
68858;SDS011;55864;49.238;8.092;2023-12-07T08:54:58;15.43;;;6.33;;
68858;SDS011;55864;49.238;8.092;2023-12-07T08:56:59;15.90;;;7.10;;
68858;SDS011;55864;49.238;8.092;2023-12-07T08:58:59;15.53;;;6.17;;
68858;SDS011;55864;49.238;8.092;2023-12-07T09:01:00;15.33;;;6.53;;
68858;SDS011;55864;49.238;8.092;2023-12-07T09:03:00;18.00;;;6.57;;
68858;SDS011;55864;49.238;8.092;2023-12-07T09:05:01;18.23;;;7.43;;
68858;SDS011;55864;49.238;8.092;2023-12-07T09:07:01;15.47;;;7.10;;
68858;SDS011;55864;49.238;8.092;2023-12-07T09:09:02;15.87;;;7.37;;
68858;SDS011;55864;49.238;8.092;2023-12-07T09:11:04;17.57;;;8.60;;
68858;SDS011;55864;49.238;8.092;2023-12-07T09:13:05;18.80;;;8.50;;
68858;SDS011;55864;49.238;8.092;2023-12-07T09:15:06;19.17;;;8.63;;
68858;SDS011;55864;49.238;8.092;2023-12-07T09:17:07;18.33;;;8.20;;
68858;SDS011;55864;49.238;8.092;2023-12-07T09:19:07;19.13;;;8.37;;
68858;SDS011;55864;49.238;8.092;2023-12-07T09:21:08;18.93;;;8.27;;
68858;SDS011;55864;49.238;8.092;2023-12-07T09:23:08;17.30;;;8.70;;
68858;SDS011;55864;49.238;8.092;2023-12-07T09:25:09;22.30;;;9.10;;
68858;SDS011;55864;49.238;8.092;2023-12-07T09:27:11;18.50;;;8.47;;
68858;SDS011;55864;49.238;8.092;2023-12-07T09:29:12;18.97;;;9.50;;
68858;SDS011;55864;49.238;8.092;2023-12-07T09:31:12;17.40;;;8.00;;
68858;SDS011;55864;49.238;8.092;2023-12-07T09:33:12;17.90;;;8.63;;
68858;SDS011;55864;49.238;8.092;2023-12-07T09:35:13;18.90;;;8.13;;
68858;SDS011;55864;49.238;8.092;2023-12-07T09:37:14;17.83;;;8.50;;
68858;SDS011;55864;49.238;8.092;2023-12-07T09:39:14;16.93;;;7.83;;
68858;SDS011;55864;49.238;8.092;2023-12-07T09:41:15;17.73;;;8.67;;
68858;SDS011;55864;49.238;8.092;2023-12-07T09:43:17;18.67;;;8.40;;
68858;SDS011;55864;49.238;8.092;2023-12-07T09:45:18;18.17;;;8.37;;
68858;SDS011;55864;49.238;8.092;2023-12-07T09:47:19;18.40;;;8.67;;
68858;SDS011;55864;49.238;8.092;2023-12-07T09:49:20;21.97;;;8.93;;
68858;SDS011;55864;49.238;8.092;2023-12-07T09:51:21;17.60;;;8.57;;
68858;SDS011;55864;49.238;8.092;2023-12-07T09:53:22;17.70;;;8.13;;
68858;SDS011;55864;49.238;8.092;2023-12-07T09:55:23;19.10;;;8.57;;
68858;SDS011;55864;49.238;8.092;2023-12-07T09:57:24;17.30;;;7.90;;
68858;SDS011;55864;49.238;8.092;2023-12-07T09:59:26;18.20;;;8.67;;
68858;SDS011;55864;49.238;8.092;2023-12-07T10:01:29;16.93;;;7.87;;
68858;SDS011;55864;49.238;8.092;2023-12-07T10:03:30;20.02;;;8.90;;
68858;SDS011;55864;49.238;8.092;2023-12-07T10:05:30;20.40;;;8.73;;
68858;SDS011;55864;49.238;8.092;2023-12-07T10:07:34;19.43;;;8.30;;
68858;SDS011;55864;49.238;8.092;2023-12-07T10:09:38;20.37;;;9.20;;
68858;SDS011;55864;49.238;8.092;2023-12-07T10:11:38;20.15;;;8.52;;
68858;SDS011;55864;49.238;8.092;2023-12-07T10:13:39;18.17;;;8.87;;
68858;SDS011;55864;49.238;8.092;2023-12-07T10:15:41;22.77;;;10.13;;
68858;SDS011;55864;49.238;8.092;2023-12-07T10:17:48;19.10;;;8.97;;
68858;SDS011;55864;49.238;8.092;2023-12-07T10:22:12;22.93;;;9.97;;
68858;SDS011;55864;49.238;8.092;2023-12-07T10:24:13;19.37;;;9.40;;
68858;SDS011;55864;49.238;8.092;2023-12-07T10:26:16;22.13;;;9.80;;
68858;SDS011;55864;49.238;8.092;2023-12-07T10:28:18;21.27;;;10.23;;
68858;SDS011;55864;49.238;8.092;2023-12-07T10:30:19;21.63;;;10.53;;
68858;SDS011;55864;49.238;8.092;2023-12-07T10:32:23;20.93;;;10.20;;
68858;SDS011;55864;49.238;8.092;2023-12-07T10:34:23;18.53;;;8.70;;
68858;SDS011;55864;49.238;8.092;2023-12-07T10:36:24;16.60;;;8.67;;
68858;SDS011;55864;49.238;8.092;2023-12-07T10:38:24;20.13;;;9.60;;
68858;SDS011;55864;49.238;8.092;2023-12-07T10:40:25;18.83;;;9.27;;
68858;SDS011;55864;49.238;8.092;2023-12-07T10:42:25;17.80;;;8.33;;
68858;SDS011;55864;49.238;8.092;2023-12-07T10:44:28;16.98;;;7.78;;
68858;SDS011;55864;49.238;8.092;2023-12-07T10:46:32;30.10;;;13.05;;
68858;SDS011;55864;49.238;8.092;2023-12-07T10:48:34;24.13;;;10.60;;
68858;SDS011;55864;49.238;8.092;2023-12-07T10:50:36;19.53;;;8.63;;
68858;SDS011;55864;49.238;8.092;2023-12-07T10:52:39;15.20;;;7.33;;
68858;SDS011;55864;49.238;8.092;2023-12-07T10:54:47;14.77;;;7.17;;
68858;SDS011;55864;49.238;8.092;2023-12-07T10:56:53;15.20;;;7.20;;
68858;SDS011;55864;49.238;8.092;2023-12-07T10:58:55;15.90;;;7.20;;
68858;SDS011;55864;49.238;8.092;2023-12-07T11:00:55;17.97;;;7.33;;
68858;SDS011;55864;49.238;8.092;2023-12-07T11:02:57;19.07;;;8.03;;
68858;SDS011;55864;49.238;8.092;2023-12-07T11:05:00;16.20;;;7.70;;
68858;SDS011;55864;49.238;8.092;2023-12-07T11:07:03;18.10;;;7.90;;
68858;SDS011;55864;49.238;8.092;2023-12-07T11:09:09;19.47;;;8.37;;
68858;SDS011;55864;49.238;8.092;2023-12-07T11:11:18;18.33;;;7.93;;
68858;SDS011;55864;49.238;8.092;2023-12-07T11:13:23;22.37;;;9.77;;
68858;SDS011;55864;49.238;8.092;2023-12-07T11:15:27;20.80;;;9.73;;
68858;SDS011;55864;49.238;8.092;2023-12-07T11:17:28;19.73;;;9.77;;
68858;SDS011;55864;49.238;8.092;2023-12-07T11:19:43;22.17;;;10.63;;
68858;SDS011;55864;49.238;8.092;2023-12-07T11:21:45;23.30;;;9.80;;
68858;SDS011;55864;49.238;8.092;2023-12-07T11:23:46;27.73;;;11.17;;
68858;SDS011;55864;49.238;8.092;2023-12-07T11:25:47;27.90;;;11.63;;
68858;SDS011;55864;49.238;8.092;2023-12-07T11:27:48;26.80;;;11.53;;
68858;SDS011;55864;49.238;8.092;2023-12-07T11:30:00;27.40;;;11.97;;
68858;SDS011;55864;49.238;8.092;2023-12-07T11:32:03;29.55;;;12.95;;
68858;SDS011;55864;49.238;8.092;2023-12-07T11:34:05;28.73;;;11.03;;
68858;SDS011;55864;49.238;8.092;2023-12-07T11:36:06;30.83;;;11.83;;
68858;SDS011;55864;49.238;8.092;2023-12-07T11:38:09;33.13;;;11.20;;
68858;SDS011;55864;49.238;8.092;2023-12-07T11:40:10;31.87;;;12.03;;
68858;SDS011;55864;49.238;8.092;2023-12-07T11:42:11;29.13;;;11.77;;
68858;SDS011;55864;49.238;8.092;2023-12-07T11:44:13;27.87;;;11.03;;
68858;SDS011;55864;49.238;8.092;2023-12-07T11:46:13;40.43;;;10.57;;
68858;SDS011;55864;49.238;8.092;2023-12-07T11:48:14;28.20;;;11.93;;
68858;SDS011;55864;49.238;8.092;2023-12-07T11:50:15;26.13;;;10.57;;
68858;SDS011;55864;49.238;8.092;2023-12-07T11:52:16;36.83;;;12.57;;
68858;SDS011;55864;49.238;8.092;2023-12-07T11:54:20;33.15;;;11.30;;
68858;SDS011;55864;49.238;8.092;2023-12-07T11:56:22;31.95;;;11.20;;
68858;SDS011;55864;49.238;8.092;2023-12-07T11:58:23;27.33;;;10.47;;
68858;SDS011;55864;49.238;8.092;2023-12-07T12:00:25;29.43;;;11.57;;